Smit Barbados — MSDU8 — position and weather

sailwx.info

Track history (hours):
 
Tides and Currents Weather Stations Pressure Air Temp Water Temp Dewpoint Dewpoint Depression Visibility Wind Speed Wind Dir Waves Ship Positions

Smit Barbados

Last reported at 2014-Nov-01 05:33 UTC. Time now 2014-Nov-01 06:55 UTC.
Position N 53°26' W 002°60'.

Length 30 m; draft 4.8 m.

Type: Tug. MMSI: 235055303.

Date/timePositionNaut miles runAvg speedWind from/ knotsBaromVisibWave heightAir tempDewpointWater temp
2014-Nov-01 05:33N 53°26' W 002°60'1 0.9
2014-Nov-01 04:33N 53°27' W 003°01'0 0.5
2014-Nov-01 03:33N 53°27' W 003°01'1 0.6
2014-Nov-01 02:33N 53°27' W 003°02'1 0.6
2014-Nov-01 01:33N 53°27' W 003°01'1 1.3
2014-Nov-01 00:33N 53°26' W 002°60'0 0.0
2014-Oct-31 23:33N 53°26' W 002°60'0 0.0
2014-Oct-31 22:33N 53°26' W 002°60'0 0.0
2014-Oct-31 21:33N 53°26' W 002°60'0 0.0
2014-Oct-31 20:33N 53°26' W 002°60'0 0.0
2014-Oct-31 19:33N 53°26' W 002°60'0 0.0
2014-Oct-31 18:33N 53°26' W 002°60'0 0.0
2014-Oct-31 17:33N 53°26' W 002°60'0 0.0
2014-Oct-31 16:33N 53°26' W 002°60'0 0.0
2014-Oct-31 15:33N 53°26' W 002°60'0 0.0
2014-Oct-31 14:33N 53°26' W 002°60'0 0.0
2014-Oct-31 13:33N 53°26' W 002°60'0 0.0
2014-Oct-31 12:33N 53°26' W 002°60'0 0.0
2014-Oct-31 11:33N 53°26' W 002°60'0 0.0
2014-Oct-31 10:33N 53°26' W 002°60'0 0.0
2014-Oct-31 09:33N 53°26' W 002°60'0 0.0
2014-Oct-31 08:33N 53°26' W 002°60'0 0.3
2014-Oct-31 07:33N 53°26' W 003°00'2 1.6
2014-Oct-31 06:33N 53°27' W 003°01'0 0.2
2014-Oct-31 05:33N 53°27' W 003°01'0 0.0
2014-Oct-31 04:33N 53°27' W 003°01'1 0.5
2014-Oct-31 03:33N 53°27' W 003°01'1 0.5
2014-Oct-31 02:33N 53°27' W 003°01'0 0.1
2014-Oct-31 01:32N 53°27' W 003°01'2 1.8
2014-Oct-31 00:33N 53°26' W 002°60'0 0.0
2014-Oct-30 23:33N 53°26' W 002°60'0 0.0
2014-Oct-30 22:33N 53°26' W 002°60'0 0.0
2014-Oct-30 21:33N 53°26' W 002°60'0 0.0
2014-Oct-30 20:33N 53°26' W 002°60'0 0.0
2014-Oct-30 19:33N 53°26' W 002°60'0 0.0
2014-Oct-30 18:33N 53°26' W 002°60'0 0.0
2014-Oct-30 17:33N 53°26' W 002°60'0 0.3
2014-Oct-30 16:33N 53°26' W 003°00'1 1.2
2014-Oct-30 15:34N 53°27' W 003°01'0 0.4
2014-Oct-30 14:33N 53°27' W 003°01'1 1.1
2014-Oct-30 13:33N 53°27' W 003°02'1 1.0
2014-Oct-30 12:33N 53°27' W 003°01'1 1.1
2014-Oct-30 11:33N 53°26' W 003°00'0 0.2
2014-Oct-30 10:32N 53°26' W 002°60'0 0.0
2014-Oct-30 09:33N 53°26' W 002°60'0 0.0
2014-Oct-30 08:33N 53°26' W 002°60'0 0.0
2014-Oct-30 07:33N 53°26' W 002°60'0 0.0
2014-Oct-30 06:33N 53°26' W 002°60'0 0.0
2014-Oct-30 05:33N 53°26' W 002°60'0 0.0
2014-Oct-30 04:33N 53°26' W 002°60'0 0.0
2014-Oct-30 03:33N 53°26' W 002°60'0 0.0
2014-Oct-30 02:33N 53°26' W 002°60'0 0.0
2014-Oct-30 01:33N 53°26' W 002°60'0 0.0
2014-Oct-30 00:32N 53°26' W 002°60'0 0.0
2014-Oct-29 23:33N 53°26' W 002°60'0 0.0
2014-Oct-29 22:33N 53°26' W 002°60'0 0.0
2014-Oct-29 21:33N 53°26' W 002°60'0 0.0
2014-Oct-29 20:33N 53°26' W 002°60'0 0.0
2014-Oct-29 19:33N 53°26' W 002°60'0 0.0
2014-Oct-29 18:33N 53°26' W 002°60'0 0.0
2014-Oct-29 17:33N 53°26' W 002°60'0 0.0
2014-Oct-29 16:33N 53°26' W 002°60'0 0.0
2014-Oct-29 15:33N 53°26' W 002°60'0 0.0
2014-Oct-29 14:33N 53°26' W 002°60'1 0.9
2014-Oct-29 13:33N 53°27' W 003°01'1 0.7
2014-Oct-29 12:33N 53°26' W 002°60'0 0.2
2014-Oct-29 11:33N 53°26' W 002°60'0 0.0
2014-Oct-29 10:32N 53°26' W 002°60'0 0.0
2014-Oct-29 09:33N 53°26' W 002°60'0 0.0
2014-Oct-29 08:30N 53°26' W 002°60'0 0.0
2014-Oct-29 07:33N 53°26' W 002°60'0 0.0
2014-Oct-29 06:32N 53°26' W 002°60'0 0.0
2014-Oct-29 05:32N 53°26' W 002°60'0 0.0
2014-Oct-29 04:33N 53°26' W 002°60'0 0.0
2014-Oct-29 03:31N 53°26' W 002°60'1 0.5
2014-Oct-29 02:33N 53°26' W 003°01'7 5.0
2014-Oct-29 01:11N 53°19' W 002°57'0 0.3
2014-Oct-29 00:31N 53°19' W 002°57'5 5.1
2014-Oct-28 23:34N 53°24' W 003°00'3 3.0
2014-Oct-28 22:33N 53°27' W 003°01'1 1.2
2014-Oct-28 21:33N 53°26' W 002°60'0 0.0
2014-Oct-28 20:33N 53°26' W 002°60'0 0.0
2014-Oct-28 19:33N 53°26' W 002°60'0 0.0
2014-Oct-28 18:33N 53°26' W 002°60'0 0.0
2014-Oct-28 17:33N 53°26' W 002°60'0 0.0
2014-Oct-28 16:33N 53°26' W 002°60'0 0.0
2014-Oct-28 15:33N 53°26' W 002°60'0 0.0
2014-Oct-28 14:33N 53°26' W 002°60'1 0.6
2014-Oct-28 13:33N 53°26' W 003°01'1 0.8
2014-Oct-28 12:33N 53°27' W 003°01'1 0.6
2014-Oct-28 11:33N 53°28' W 003°01'0 0.1
2014-Oct-28 10:33N 53°28' W 003°01'1 1.2
2014-Oct-28 09:33N 53°26' W 003°01'0 0.4
2014-Oct-28 08:33N 53°26' W 003°01'1 1.0
2014-Oct-28 07:33N 53°27' W 003°01'0 0.3
2014-Oct-28 06:33N 53°27' W 003°01'0 0.0
2014-Oct-28 05:33N 53°27' W 003°01'0 0.2
2014-Oct-28 04:33N 53°27' W 003°01'4 4.2
2014-Oct-28 03:34N 53°23' W 002°60'4 4.0
2014-Oct-28 02:33N 53°19' W 002°57'1 0.9
2014-Oct-28 01:33N 53°20' W 002°57'7 7.2
2014-Oct-28 00:33N 53°27' W 003°01'1 1.3
2014-Oct-27 23:33N 53°26' W 002°60'0 0.0
2014-Oct-27 22:33N 53°26' W 002°60'0 0.0
2014-Oct-27 21:33N 53°26' W 002°60'0 0.0
2014-Oct-27 20:33N 53°26' W 002°60'0 0.0
2014-Oct-27 19:28N 53°26' W 002°60'0 0.0
2014-Oct-27 18:27N 53°26' W 002°60'0 0.0
2014-Oct-27 17:33N 53°26' W 002°60'0 0.0
2014-Oct-27 16:33N 53°26' W 002°60'0 0.0
2014-Oct-27 15:33N 53°26' W 002°60'2 1.9
2014-Oct-27 14:33N 53°28' W 003°01'1 0.5
2014-Oct-27 13:33N 53°27' W 003°01'1 0.8
2014-Oct-27 12:33N 53°26' W 003°01'0 0.3
2014-Oct-27 11:33N 53°26' W 003°01'1 0.9
2014-Oct-27 10:33N 53°27' W 003°01'1 1.3
2014-Oct-27 09:33N 53°26' W 003°00'0 0.2
2014-Oct-27 08:33N 53°26' W 002°60'0 0.0
2014-Oct-27 07:33N 53°26' W 002°60'0 0.0
2014-Oct-27 06:33N 53°26' W 002°60'0 0.0
2014-Oct-27 05:33N 53°26' W 002°60'0 0.0
2014-Oct-27 04:33N 53°26' W 002°60'0 0.0
2014-Oct-27 03:33N 53°26' W 002°60'0 0.0
2014-Oct-27 02:33N 53°26' W 002°60'0 0.0
2014-Oct-27 01:33N 53°26' W 002°60'1 1.3
2014-Oct-27 00:33N 53°27' W 003°01'0 0.0
2014-Oct-26 23:33N 53°27' W 003°01'1 0.7
2014-Oct-26 22:33N 53°28' W 003°01'0 0.1
2014-Oct-26 21:33N 53°28' W 003°01'0 0.0
2014-Oct-26 20:33N 53°28' W 003°01'2 1.8
2014-Oct-26 19:33N 53°26' W 003°00'0 0.2
2014-Oct-26 18:33N 53°26' W 002°60'0 0.0
2014-Oct-26 17:33N 53°26' W 002°60'0 0.0
2014-Oct-26 16:33N 53°26' W 002°60'0 0.0
2014-Oct-26 15:33N 53°26' W 002°60'0 0.0
2014-Oct-26 14:33N 53°26' W 002°60'0 0.0
2014-Oct-26 13:33N 53°26' W 002°60'2 1.8
2014-Oct-26 12:33N 53°27' W 003°01'1 0.6
2014-Oct-26 11:33N 53°27' W 003°01'3 2.5
2014-Oct-26 10:33N 53°29' W 003°04'2 2.5
2014-Oct-26 09:33N 53°27' W 003°01'1 1.2
2014-Oct-26 08:33N 53°26' W 003°00'0 0.2
2014-Oct-26 07:33N 53°26' W 002°60'0 0.0
2014-Oct-26 06:33N 53°26' W 002°60'0 0.0
2014-Oct-26 05:33N 53°26' W 002°60'0 0.0
2014-Oct-26 04:33N 53°26' W 002°60'0 0.0
2014-Oct-26 03:33N 53°26' W 002°60'0 0.0
2014-Oct-26 02:33N 53°26' W 002°60'0 0.0
2014-Oct-26 01:33N 53°26' W 002°60'0 0.0
2014-Oct-26 00:33N 53°26' W 002°60'0 0.0
2014-Oct-25 23:33N 53°26' W 002°60'2 1.6
2014-Oct-25 22:33N 53°27' W 003°01'0 0.4
2014-Oct-25 21:33N 53°27' W 003°01'0 0.4
2014-Oct-25 20:33N 53°27' W 003°01'1 0.9
2014-Oct-25 19:33N 53°26' W 002°60'0 0.0
2014-Oct-25 18:34N 53°26' W 002°60'0 0.0
2014-Oct-25 17:33N 53°26' W 002°60'0 0.0
2014-Oct-25 16:33N 53°26' W 002°60'0 0.0
2014-Oct-25 15:33N 53°26' W 002°60'1 0.7
2014-Oct-25 14:33N 53°27' W 003°00'1 1.3
2014-Oct-25 13:33N 53°28' W 003°02'1 0.7
2014-Oct-25 12:33N 53°27' W 003°01'1 0.7
2014-Oct-25 11:33N 53°28' W 003°01'0 0.2
2014-Oct-25 10:33N 53°28' W 003°02'1 0.8
2014-Oct-25 09:33N 53°27' W 003°01'0 0.1
2014-Oct-25 08:33N 53°27' W 003°01'1 1.3
2014-Oct-25 07:33N 53°26' W 003°00'0 0.1
2014-Oct-25 06:33N 53°26' W 002°60'0 0.0
2014-Oct-25 05:33N 53°26' W 002°60'0 0.0
2014-Oct-25 04:33N 53°26' W 002°60'0 0.0
2014-Oct-25 03:33N 53°26' W 002°60'0 0.0
2014-Oct-25 02:33N 53°26' W 002°60'0 0.0
2014-Oct-25 01:33N 53°26' W 002°60'0 0.0
2014-Oct-25 00:33N 53°26' W 002°60'0 0.0
2014-Oct-24 23:33N 53°26' W 002°60'0 0.0
2014-Oct-24 22:33N 53°26' W 002°60'0 0.0
2014-Oct-24 21:33N 53°26' W 002°60'0 0.0
2014-Oct-24 20:33N 53°26' W 002°60'0 0.0
2014-Oct-24 19:33N 53°26' W 002°60'0 0.0
2014-Oct-24 18:32N 53°26' W 002°60'0 0.0
2014-Oct-24 17:32N 53°26' W 002°60'0 0.0
2014-Oct-24 16:33N 53°26' W 002°60'0 0.0
2014-Oct-24 15:33N 53°26' W 002°60'0 0.0
2014-Oct-24 14:33N 53°26' W 002°60'0 0.0
2014-Oct-24 13:33N 53°26' W 002°60'0 0.0
2014-Oct-24 12:33N 53°26' W 002°60'0 0.0
2014-Oct-24 11:33N 53°26' W 002°60'2 1.8
2014-Oct-24 10:33N 53°27' W 003°01'1 0.6
2014-Oct-24 09:33N 53°27' W 003°01'0 0.1
2014-Oct-24 08:33N 53°27' W 003°01'1 0.5
2014-Oct-24 07:32N 53°27' W 003°01'0 0.0
2014-Oct-24 06:33N 53°27' W 003°01'0 0.0
2014-Oct-24 05:33N 53°27' W 003°01'0 0.0
2014-Oct-24 04:33N 53°27' W 003°01'0 0.0
2014-Oct-24 03:33N 53°27' W 003°01'0 0.0
2014-Oct-24 02:33N 53°27' W 003°01'0 0.3
2014-Oct-24 01:33N 53°27' W 003°01'8 7.7
2014-Oct-24 00:33N 53°20' W 002°57'3 3.4
2014-Oct-23 23:33N 53°23' W 002°60'0 0.0
2014-Oct-23 22:15N 53°23' W 002°60'4 5.9
2014-Oct-23 21:33N 53°27' W 003°01'0 0.3
2014-Oct-23 20:33N 53°27' W 003°01'1 1.3
2014-Oct-23 19:33N 53°26' W 002°60'0 0.0
2014-Oct-23 18:22N 53°26' W 002°60'0 0.0
2014-Oct-23 17:30N 53°26' W 002°60'0 0.0
2014-Oct-23 16:33N 53°26' W 002°60'0 0.0
2014-Oct-23 15:32N 53°26' W 002°60'0 0.0
2014-Oct-23 14:33N 53°26' W 002°60'0 0.0
2014-Oct-23 13:33N 53°26' W 002°60'0 0.0
2014-Oct-23 12:33N 53°26' W 002°60'0 0.0
2014-Oct-23 11:33N 53°26' W 002°60'0 0.0
2014-Oct-23 10:30N 53°26' W 002°60'0 0.0
2014-Oct-23 09:33N 53°26' W 002°60'0 0.0
2014-Oct-23 08:33N 53°26' W 002°60'0 0.0
2014-Oct-23 07:33N 53°26' W 002°60'0 0.0
2014-Oct-23 06:33N 53°26' W 002°60'0 0.0
2014-Oct-23 05:33N 53°26' W 002°60'0 0.0
2014-Oct-23 04:33N 53°26' W 002°60'0 0.0
2014-Oct-23 03:33N 53°26' W 002°60'0 0.0
2014-Oct-23 02:33N 53°26' W 002°60'0 0.0
2014-Oct-23 01:33N 53°26' W 002°60'0 0.0
2014-Oct-23 00:33N 53°26' W 002°60'0 0.0
2014-Oct-22 23:34N 53°26' W 002°60'0 0.0
2014-Oct-22 22:33N 53°26' W 002°60'0 0.0
2014-Oct-22 21:33N 53°26' W 002°60'0 0.0
2014-Oct-22 20:33N 53°26' W 002°60'0 0.0
2014-Oct-22 19:33N 53°26' W 002°60'0 0.0
2014-Oct-22 18:33N 53°26' W 002°60'1 0.7
2014-Oct-22 17:33N 53°25' W 003°01'2 1.6
2014-Oct-22 16:33N 53°27' W 003°01'1 1.3
2014-Oct-22 15:33N 53°26' W 002°60'0 0.0
2014-Oct-22 14:30N 53°26' W 002°60'0 0.0
2014-Oct-22 13:33N 53°26' W 002°60'0 0.0
2014-Oct-22 12:33N 53°26' W 002°60'0 0.0
2014-Oct-22 11:33N 53°26' W 002°60'2 1.8
2014-Oct-22 10:33N 53°27' W 003°01'1 0.7
2014-Oct-22 09:33N 53°27' W 003°01'1 1.2
2014-Oct-22 08:34N 53°28' W 003°03'1 0.9
2014-Oct-22 07:33N 53°27' W 003°02'1 1.1
2014-Oct-22 06:33N 53°26' W 003°00'0 0.3
2014-Oct-22 05:33N 53°26' W 002°60'  
Track history (hours):
 
Tides and Currents Weather Stations Pressure Air Temp Water Temp Dewpoint Dewpoint Depression Visibility Wind Speed Wind Dir Waves Ship Positions

Smit Barbados

Last reported at 2014-Nov-01 05:33 UTC. Time now 2014-Nov-01 06:55 UTC.
Position N 53°26' W 002°60'.

Length 30 m; draft 4.8 m.

Type: Tug. MMSI: 235055303.

Date/timePositionNaut miles runAvg speedWind from/ knotsBaromVisibWave heightAir tempDewpointWater temp
2014-Nov-01 05:33N 53°26' W 002°60'1 0.9
2014-Nov-01 04:33N 53°27' W 003°01'0 0.5
2014-Nov-01 03:33N 53°27' W 003°01'1 0.6
2014-Nov-01 02:33N 53°27' W 003°02'1 0.6
2014-Nov-01 01:33N 53°27' W 003°01'1 1.3
2014-Nov-01 00:33N 53°26' W 002°60'0 0.0
2014-Oct-31 23:33N 53°26' W 002°60'0 0.0
2014-Oct-31 22:33N 53°26' W 002°60'0 0.0
2014-Oct-31 21:33N 53°26' W 002°60'0 0.0
2014-Oct-31 20:33N 53°26' W 002°60'0 0.0
2014-Oct-31 19:33N 53°26' W 002°60'0 0.0
2014-Oct-31 18:33N 53°26' W 002°60'0 0.0
2014-Oct-31 17:33N 53°26' W 002°60'0 0.0
2014-Oct-31 16:33N 53°26' W 002°60'0 0.0
2014-Oct-31 15:33N 53°26' W 002°60'0 0.0
2014-Oct-31 14:33N 53°26' W 002°60'0 0.0
2014-Oct-31 13:33N 53°26' W 002°60'0 0.0
2014-Oct-31 12:33N 53°26' W 002°60'0 0.0
2014-Oct-31 11:33N 53°26' W 002°60'0 0.0
2014-Oct-31 10:33N 53°26' W 002°60'0 0.0
2014-Oct-31 09:33N 53°26' W 002°60'0 0.0
2014-Oct-31 08:33N 53°26' W 002°60'0 0.3
2014-Oct-31 07:33N 53°26' W 003°00'2 1.6
2014-Oct-31 06:33N 53°27' W 003°01'0 0.2
2014-Oct-31 05:33N 53°27' W 003°01'0 0.0
2014-Oct-31 04:33N 53°27' W 003°01'1 0.5
2014-Oct-31 03:33N 53°27' W 003°01'1 0.5
2014-Oct-31 02:33N 53°27' W 003°01'0 0.1
2014-Oct-31 01:32N 53°27' W 003°01'2 1.8
2014-Oct-31 00:33N 53°26' W 002°60'0 0.0
2014-Oct-30 23:33N 53°26' W 002°60'0 0.0
2014-Oct-30 22:33N 53°26' W 002°60'0 0.0
2014-Oct-30 21:33N 53°26' W 002°60'0 0.0
2014-Oct-30 20:33N 53°26' W 002°60'0 0.0
2014-Oct-30 19:33N 53°26' W 002°60'0 0.0
2014-Oct-30 18:33N 53°26' W 002°60'0 0.0
2014-Oct-30 17:33N 53°26' W 002°60'0 0.3
2014-Oct-30 16:33N 53°26' W 003°00'1 1.2
2014-Oct-30 15:34N 53°27' W 003°01'0 0.4
2014-Oct-30 14:33N 53°27' W 003°01'1 1.1
2014-Oct-30 13:33N 53°27' W 003°02'1 1.0
2014-Oct-30 12:33N 53°27' W 003°01'1 1.1
2014-Oct-30 11:33N 53°26' W 003°00'0 0.2
2014-Oct-30 10:32N 53°26' W 002°60'0 0.0
2014-Oct-30 09:33N 53°26' W 002°60'0 0.0
2014-Oct-30 08:33N 53°26' W 002°60'0 0.0
2014-Oct-30 07:33N 53°26' W 002°60'0 0.0
2014-Oct-30 06:33N 53°26' W 002°60'0 0.0
2014-Oct-30 05:33N 53°26' W 002°60'0 0.0
2014-Oct-30 04:33N 53°26' W 002°60'0 0.0
2014-Oct-30 03:33N 53°26' W 002°60'0 0.0
2014-Oct-30 02:33N 53°26' W 002°60'0 0.0
2014-Oct-30 01:33N 53°26' W 002°60'0 0.0
2014-Oct-30 00:32N 53°26' W 002°60'0 0.0
2014-Oct-29 23:33N 53°26' W 002°60'0 0.0
2014-Oct-29 22:33N 53°26' W 002°60'0 0.0
2014-Oct-29 21:33N 53°26' W 002°60'0 0.0
2014-Oct-29 20:33N 53°26' W 002°60'0 0.0
2014-Oct-29 19:33N 53°26' W 002°60'0 0.0
2014-Oct-29 18:33N 53°26' W 002°60'0 0.0
2014-Oct-29 17:33N 53°26' W 002°60'0 0.0
2014-Oct-29 16:33N 53°26' W 002°60'0 0.0
2014-Oct-29 15:33N 53°26' W 002°60'0 0.0
2014-Oct-29 14:33N 53°26' W 002°60'1 0.9
2014-Oct-29 13:33N 53°27' W 003°01'1 0.7
2014-Oct-29 12:33N 53°26' W 002°60'0 0.2
2014-Oct-29 11:33N 53°26' W 002°60'0 0.0
2014-Oct-29 10:32N 53°26' W 002°60'0 0.0
2014-Oct-29 09:33N 53°26' W 002°60'0 0.0
2014-Oct-29 08:30N 53°26' W 002°60'0 0.0
2014-Oct-29 07:33N 53°26' W 002°60'0 0.0
2014-Oct-29 06:32N 53°26' W 002°60'0 0.0
2014-Oct-29 05:32N 53°26' W 002°60'0 0.0
2014-Oct-29 04:33N 53°26' W 002°60'0 0.0
2014-Oct-29 03:31N 53°26' W 002°60'1 0.5
2014-Oct-29 02:33N 53°26' W 003°01'7 5.0
2014-Oct-29 01:11N 53°19' W 002°57'0 0.3
2014-Oct-29 00:31N 53°19' W 002°57'5 5.1
2014-Oct-28 23:34N 53°24' W 003°00'3 3.0
2014-Oct-28 22:33N 53°27' W 003°01'1 1.2
2014-Oct-28 21:33N 53°26' W 002°60'0 0.0
2014-Oct-28 20:33N 53°26' W 002°60'0 0.0
2014-Oct-28 19:33N 53°26' W 002°60'0 0.0
2014-Oct-28 18:33N 53°26' W 002°60'0 0.0
2014-Oct-28 17:33N 53°26' W 002°60'0 0.0
2014-Oct-28 16:33N 53°26' W 002°60'0 0.0
2014-Oct-28 15:33N 53°26' W 002°60'0 0.0
2014-Oct-28 14:33N 53°26' W 002°60'1 0.6
2014-Oct-28 13:33N 53°26' W 003°01'1 0.8
2014-Oct-28 12:33N 53°27' W 003°01'1 0.6
2014-Oct-28 11:33N 53°28' W 003°01'0 0.1
2014-Oct-28 10:33N 53°28' W 003°01'1 1.2
2014-Oct-28 09:33N 53°26' W 003°01'0 0.4
2014-Oct-28 08:33N 53°26' W 003°01'1 1.0
2014-Oct-28 07:33N 53°27' W 003°01'0 0.3
2014-Oct-28 06:33N 53°27' W 003°01'0 0.0
2014-Oct-28 05:33N 53°27' W 003°01'0 0.2
2014-Oct-28 04:33N 53°27' W 003°01'4 4.2
2014-Oct-28 03:34N 53°23' W 002°60'4 4.0
2014-Oct-28 02:33N 53°19' W 002°57'1 0.9
2014-Oct-28 01:33N 53°20' W 002°57'7 7.2
2014-Oct-28 00:33N 53°27' W 003°01'1 1.3
2014-Oct-27 23:33N 53°26' W 002°60'0 0.0
2014-Oct-27 22:33N 53°26' W 002°60'0 0.0
2014-Oct-27 21:33N 53°26' W 002°60'0 0.0
2014-Oct-27 20:33N 53°26' W 002°60'0 0.0
2014-Oct-27 19:28N 53°26' W 002°60'0 0.0
2014-Oct-27 18:27N 53°26' W 002°60'0 0.0
2014-Oct-27 17:33N 53°26' W 002°60'0 0.0
2014-Oct-27 16:33N 53°26' W 002°60'0 0.0
2014-Oct-27 15:33N 53°26' W 002°60'2 1.9
2014-Oct-27 14:33N 53°28' W 003°01'1 0.5
2014-Oct-27 13:33N 53°27' W 003°01'1 0.8
2014-Oct-27 12:33N 53°26' W 003°01'0 0.3
2014-Oct-27 11:33N 53°26' W 003°01'1 0.9
2014-Oct-27 10:33N 53°27' W 003°01'1 1.3
2014-Oct-27 09:33N 53°26' W 003°00'0 0.2
2014-Oct-27 08:33N 53°26' W 002°60'0 0.0
2014-Oct-27 07:33N 53°26' W 002°60'0 0.0
2014-Oct-27 06:33N 53°26' W 002°60'0 0.0
2014-Oct-27 05:33N 53°26' W 002°60'0 0.0
2014-Oct-27 04:33N 53°26' W 002°60'0 0.0
2014-Oct-27 03:33N 53°26' W 002°60'0 0.0
2014-Oct-27 02:33N 53°26' W 002°60'0 0.0
2014-Oct-27 01:33N 53°26' W 002°60'1 1.3
2014-Oct-27 00:33N 53°27' W 003°01'0 0.0
2014-Oct-26 23:33N 53°27' W 003°01'1 0.7
2014-Oct-26 22:33N 53°28' W 003°01'0 0.1
2014-Oct-26 21:33N 53°28' W 003°01'0 0.0
2014-Oct-26 20:33N 53°28' W 003°01'2 1.8
2014-Oct-26 19:33N 53°26' W 003°00'0 0.2
2014-Oct-26 18:33N 53°26' W 002°60'0 0.0
2014-Oct-26 17:33N 53°26' W 002°60'0 0.0
2014-Oct-26 16:33N 53°26' W 002°60'0 0.0
2014-Oct-26 15:33N 53°26' W 002°60'0 0.0
2014-Oct-26 14:33N 53°26' W 002°60'0 0.0
2014-Oct-26 13:33N 53°26' W 002°60'2 1.8
2014-Oct-26 12:33N 53°27' W 003°01'1 0.6
2014-Oct-26 11:33N 53°27' W 003°01'3 2.5
2014-Oct-26 10:33N 53°29' W 003°04'2 2.5
2014-Oct-26 09:33N 53°27' W 003°01'1 1.2
2014-Oct-26 08:33N 53°26' W 003°00'0 0.2
2014-Oct-26 07:33N 53°26' W 002°60'0 0.0
2014-Oct-26 06:33N 53°26' W 002°60'0 0.0
2014-Oct-26 05:33N 53°26' W 002°60'0 0.0
2014-Oct-26 04:33N 53°26' W 002°60'0 0.0
2014-Oct-26 03:33N 53°26' W 002°60'0 0.0
2014-Oct-26 02:33N 53°26' W 002°60'0 0.0
2014-Oct-26 01:33N 53°26' W 002°60'0 0.0
2014-Oct-26 00:33N 53°26' W 002°60'0 0.0
2014-Oct-25 23:33N 53°26' W 002°60'2 1.6
2014-Oct-25 22:33N 53°27' W 003°01'0 0.4
2014-Oct-25 21:33N 53°27' W 003°01'0 0.4
2014-Oct-25 20:33N 53°27' W 003°01'1 0.9
2014-Oct-25 19:33N 53°26' W 002°60'0 0.0
2014-Oct-25 18:34N 53°26' W 002°60'0 0.0
2014-Oct-25 17:33N 53°26' W 002°60'0 0.0
2014-Oct-25 16:33N 53°26' W 002°60'0 0.0
2014-Oct-25 15:33N 53°26' W 002°60'1 0.7
2014-Oct-25 14:33N 53°27' W 003°00'1 1.3
2014-Oct-25 13:33N 53°28' W 003°02'1 0.7
2014-Oct-25 12:33N 53°27' W 003°01'1 0.7
2014-Oct-25 11:33N 53°28' W 003°01'0 0.2
2014-Oct-25 10:33N 53°28' W 003°02'1 0.8
2014-Oct-25 09:33N 53°27' W 003°01'0 0.1
2014-Oct-25 08:33N 53°27' W 003°01'1 1.3
2014-Oct-25 07:33N 53°26' W 003°00'0 0.1
2014-Oct-25 06:33N 53°26' W 002°60'0 0.0
2014-Oct-25 05:33N 53°26' W 002°60'0 0.0
2014-Oct-25 04:33N 53°26' W 002°60'0 0.0
2014-Oct-25 03:33N 53°26' W 002°60'0 0.0
2014-Oct-25 02:33N 53°26' W 002°60'0 0.0
2014-Oct-25 01:33N 53°26' W 002°60'0 0.0
2014-Oct-25 00:33N 53°26' W 002°60'0 0.0
2014-Oct-24 23:33N 53°26' W 002°60'0 0.0
2014-Oct-24 22:33N 53°26' W 002°60'0 0.0
2014-Oct-24 21:33N 53°26' W 002°60'0 0.0
2014-Oct-24 20:33N 53°26' W 002°60'0 0.0
2014-Oct-24 19:33N 53°26' W 002°60'0 0.0
2014-Oct-24 18:32N 53°26' W 002°60'0 0.0
2014-Oct-24 17:32N 53°26' W 002°60'0 0.0
2014-Oct-24 16:33N 53°26' W 002°60'0 0.0
2014-Oct-24 15:33N 53°26' W 002°60'0 0.0
2014-Oct-24 14:33N 53°26' W 002°60'0 0.0
2014-Oct-24 13:33N 53°26' W 002°60'0 0.0
2014-Oct-24 12:33N 53°26' W 002°60'0 0.0
2014-Oct-24 11:33N 53°26' W 002°60'2 1.8
2014-Oct-24 10:33N 53°27' W 003°01'1 0.6
2014-Oct-24 09:33N 53°27' W 003°01'0 0.1
2014-Oct-24 08:33N 53°27' W 003°01'1 0.5
2014-Oct-24 07:32N 53°27' W 003°01'0 0.0
2014-Oct-24 06:33N 53°27' W 003°01'0 0.0
2014-Oct-24 05:33N 53°27' W 003°01'0 0.0
2014-Oct-24 04:33N 53°27' W 003°01'0 0.0
2014-Oct-24 03:33N 53°27' W 003°01'0 0.0
2014-Oct-24 02:33N 53°27' W 003°01'0 0.3
2014-Oct-24 01:33N 53°27' W 003°01'8 7.7
2014-Oct-24 00:33N 53°20' W 002°57'3 3.4
2014-Oct-23 23:33N 53°23' W 002°60'0 0.0
2014-Oct-23 22:15N 53°23' W 002°60'4 5.9
2014-Oct-23 21:33N 53°27' W 003°01'0 0.3
2014-Oct-23 20:33N 53°27' W 003°01'1 1.3
2014-Oct-23 19:33N 53°26' W 002°60'0 0.0
2014-Oct-23 18:22N 53°26' W 002°60'0 0.0
2014-Oct-23 17:30N 53°26' W 002°60'0 0.0
2014-Oct-23 16:33N 53°26' W 002°60'0 0.0
2014-Oct-23 15:32N 53°26' W 002°60'0 0.0
2014-Oct-23 14:33N 53°26' W 002°60'0 0.0
2014-Oct-23 13:33N 53°26' W 002°60'0 0.0
2014-Oct-23 12:33N 53°26' W 002°60'0 0.0
2014-Oct-23 11:33N 53°26' W 002°60'0 0.0
2014-Oct-23 10:30N 53°26' W 002°60'0 0.0
2014-Oct-23 09:33N 53°26' W 002°60'0 0.0
2014-Oct-23 08:33N 53°26' W 002°60'0 0.0
2014-Oct-23 07:33N 53°26' W 002°60'0 0.0
2014-Oct-23 06:33N 53°26' W 002°60'0 0.0
2014-Oct-23 05:33N 53°26' W 002°60'0 0.0
2014-Oct-23 04:33N 53°26' W 002°60'0 0.0
2014-Oct-23 03:33N 53°26' W 002°60'0 0.0
2014-Oct-23 02:33N 53°26' W 002°60'0 0.0
2014-Oct-23 01:33N 53°26' W 002°60'0 0.0
2014-Oct-23 00:33N 53°26' W 002°60'0 0.0
2014-Oct-22 23:34N 53°26' W 002°60'0 0.0
2014-Oct-22 22:33N 53°26' W 002°60'0 0.0
2014-Oct-22 21:33N 53°26' W 002°60'0 0.0
2014-Oct-22 20:33N 53°26' W 002°60'0 0.0
2014-Oct-22 19:33N 53°26' W 002°60'0 0.0
2014-Oct-22 18:33N 53°26' W 002°60'1 0.7
2014-Oct-22 17:33N 53°25' W 003°01'2 1.6
2014-Oct-22 16:33N 53°27' W 003°01'1 1.3
2014-Oct-22 15:33N 53°26' W 002°60'0 0.0
2014-Oct-22 14:30N 53°26' W 002°60'0 0.0
2014-Oct-22 13:33N 53°26' W 002°60'0 0.0
2014-Oct-22 12:33N 53°26' W 002°60'0 0.0
2014-Oct-22 11:33N 53°26' W 002°60'2 1.8
2014-Oct-22 10:33N 53°27' W 003°01'1 0.7
2014-Oct-22 09:33N 53°27' W 003°01'1 1.2
2014-Oct-22 08:34N 53°28' W 003°03'1 0.9
2014-Oct-22 07:33N 53°27' W 003°02'1 1.1
2014-Oct-22 06:33N 53°26' W 003°00'0 0.3
2014-Oct-22 05:33N 53°26' W 002°60'  

Dump ship's entire track history